Time,TemperatureF,DewpointF,PressureIn,WindDirection,WindDirectionDegrees,WindSpeedMPH,WindSpeedGustMPH,Humidity,HourlyPrecipIn,Conditions,Clouds,dailyrainin,SoftwareType,DateUTC
2013-05-14 00:00:00,51.4,44.5,31.01,WSW,247,0.0,0.0,77,0.00,,---,0.00,VWS V13.00,2013-05-14 05:00:00,
2013-05-14 00:05:00,51.6,45.0,31.01,WSW,247,0.0,0.0,78,0.00,,---,0.00,VWS V13.00,2013-05-14 05:05:00,
2013-05-14 00:11:00,51.6,45.0,31.01,WSW,247,0.0,0.0,78,0.00,,---,0.00,VWS V13.00,2013-05-14 05:11:00,
2013-05-14 00:17:00,51.4,44.8,31.01,WSW,247,0.0,0.0,78,0.00,,---,0.00,VWS V13.00,2013-05-14 05:17:00,
2013-05-14 00:23:00,51.3,45.0,31.01,WSW,247,0.0,0.0,79,0.00,,---,0.00,VWS V13.00,2013-05-14 05:23:00,
2013-05-14 00:29:00,51.1,44.8,31.01,WSW,247,0.0,0.0,79,0.00,,---,0.00,VWS V13.00,2013-05-14 05:29:00,
2013-05-14 00:35:00,50.9,45.0,31.01,WSW,247,0.0,0.0,80,0.00,,---,0.00,VWS V13.00,2013-05-14 05:35:00,
2013-05-14 00:40:00,50.9,45.0,31.01,WSW,247,0.0,0.0,80,0.00,,---,0.00,VWS V13.00,2013-05-14 05:40:00,
2013-05-14 00:47:00,50.7,44.8,31.01,WSW,247,0.0,0.0,80,0.00,,---,0.00,VWS V13.00,2013-05-14 05:47:00,
2013-05-14 00:53:00,50.5,44.9,31.01,WSW,247,0.0,0.0,81,0.00,,---,0.00,VWS V13.00,2013-05-14 05:53:00,
2013-05-14 00:59:00,50.5,44.9,31.01,WSW,247,0.0,0.0,81,0.00,,---,0.00,VWS V13.00,2013-05-14 05:59:00,
2013-05-14 01:05:00,50.4,44.8,31.01,WSW,247,0.0,0.0,81,0.00,,---,0.00,VWS V13.00,2013-05-14 06:05:00,
2013-05-14 01:10:00,50.2,44.9,31.01,WSW,247,0.0,0.0,82,0.00,,---,0.00,VWS V13.00,2013-05-14 06:10:00,
2013-05-14 01:17:00,50.0,44.7,31.01,WSW,247,0.0,0.0,82,0.00,,---,0.00,VWS V13.00,2013-05-14 06:17:00,
2013-05-14 01:23:00,50.0,45.0,31.01,WSW,247,0.0,0.0,83,0.00,,---,0.00,VWS V13.00,2013-05-14 06:23:00,
2013-05-14 01:29:00,50.0,45.0,31.01,WSW,247,0.0,0.0,83,0.00,,---,0.00,VWS V13.00,2013-05-14 06:29:00,
2013-05-14 01:35:00,50.0,45.0,31.01,WSW,247,0.0,0.0,83,0.00,,---,0.00,VWS V13.00,2013-05-14 06:35:00,
2013-05-14 01:40:00,50.2,45.5,31.01,WSW,247,0.0,0.0,84,0.00,,---,0.00,VWS V13.00,2013-05-14 06:40:00,
2013-05-14 01:45:00,50.2,45.5,31.01,WSW,247,0.0,0.0,84,0.00,,---,0.00,VWS V13.00,2013-05-14 06:45:00,
2013-05-14 01:50:00,50.2,45.5,31.01,WSW,247,0.0,0.0,84,0.00,,---,0.00,VWS V13.00,2013-05-14 06:50:00,
2013-05-14 01:56:00,50.4,45.7,31.01,WSW,247,0.0,0.0,84,0.00,,---,0.00,VWS V13.00,2013-05-14 06:56:00,
2013-05-14 02:02:00,50.4,45.7,31.01,WSW,247,0.0,0.0,84,0.00,,---,0.00,VWS V13.00,2013-05-14 07:02:00,
2013-05-14 02:08:00,50.2,45.5,31.01,WSW,247,0.0,0.0,84,0.00,,---,0.00,VWS V13.00,2013-05-14 07:08:00,
2013-05-14 02:14:00,50.0,45.7,31.01,WSW,247,0.0,0.0,85,0.00,,---,0.00,VWS V13.00,2013-05-14 07:14:00,
2013-05-14 02:20:00,49.8,45.5,31.01,WSW,247,0.0,0.0,85,0.00,,---,0.00,VWS V13.00,2013-05-14 07:20:00,
2013-05-14 02:25:00,49.6,45.3,31.01,WSW,247,0.0,0.0,85,0.00,,---,0.00,VWS V13.00,2013-05-14 07:25:00,
2013-05-14 02:30:00,49.5,45.2,31.01,WSW,247,0.0,0.0,85,0.00,,---,0.00,VWS V13.00,2013-05-14 07:30:00,
2013-05-14 02:35:00,49.5,45.5,31.01,WSW,247,0.0,0.0,86,0.00,,---,0.00,VWS V13.00,2013-05-14 07:35:00,
2013-05-14 02:41:00,49.5,45.5,31.01,WSW,247,0.0,0.0,86,0.00,,---,0.00,VWS V13.00,2013-05-14 07:41:00,
2013-05-14 02:47:00,49.1,45.1,31.01,WSW,247,0.0,0.0,86,0.00,,---,0.00,VWS V13.00,2013-05-14 07:47:00,
2013-05-14 02:53:00,49.1,45.1,31.01,WSW,247,0.0,0.0,86,0.00,,---,0.00,VWS V13.00,2013-05-14 07:53:00,
2013-05-14 02:59:00,48.9,44.9,31.01,WSW,247,0.0,0.0,86,0.00,,---,0.00,VWS V13.00,2013-05-14 07:59:00,
2013-05-14 03:05:00,48.9,44.9,31.01,WSW,247,0.0,0.0,86,0.00,,---,0.00,VWS V13.00,2013-05-14 08:05:00,
2013-05-14 03:10:00,48.7,44.8,31.01,WSW,247,0.0,0.0,86,0.00,,---,0.00,VWS V13.00,2013-05-14 08:10:00,
2013-05-14 03:17:00,48.7,44.8,31.01,WSW,247,0.0,0.0,86,0.00,,---,0.00,VWS V13.00,2013-05-14 08:17:00,
2013-05-14 03:23:00,48.7,45.0,31.01,WSW,247,0.0,0.0,87,0.00,,---,0.00,VWS V13.00,2013-05-14 08:23:00,
2013-05-14 03:29:00,48.7,45.0,31.01,WSW,247,0.0,0.0,87,0.00,,---,0.00,VWS V13.00,2013-05-14 08:29:00,
2013-05-14 03:35:00,48.7,45.0,31.01,WSW,247,0.0,0.0,87,0.00,,---,0.00,VWS V13.00,2013-05-14 08:35:00,
2013-05-14 03:40:00,48.7,45.0,31.01,WSW,247,0.0,0.0,87,0.00,,---,0.00,VWS V13.00,2013-05-14 08:40:00,
2013-05-14 03:45:00,48.7,45.3,31.01,WSW,247,0.0,0.0,88,0.00,,---,0.00,VWS V13.00,2013-05-14 08:45:00,
2013-05-14 03:50:00,48.7,45.3,31.01,WSW,247,0.0,0.0,88,0.00,,---,0.00,VWS V13.00,2013-05-14 08:50:00,
2013-05-14 03:56:00,48.9,45.5,31.01,WSW,247,0.0,0.0,88,0.00,,---,0.00,VWS V13.00,2013-05-14 08:56:00,
2013-05-14 04:03:00,48.9,45.5,31.01,WSW,247,0.0,0.0,88,0.00,,---,0.00,VWS V13.00,2013-05-14 09:03:00,
2013-05-14 04:09:00,48.7,45.3,31.01,WSW,247,0.0,0.0,88,0.00,,---,0.00,VWS V13.00,2013-05-14 09:09:00,
2013-05-14 04:15:00,48.7,45.3,31.01,WSW,247,0.0,0.0,88,0.00,,---,0.00,VWS V13.00,2013-05-14 09:15:00,
2013-05-14 04:20:00,48.7,45.7,31.01,WSW,247,0.0,0.0,89,0.00,,---,0.00,VWS V13.00,2013-05-14 09:20:00,
2013-05-14 04:27:00,49.1,46.0,31.01,WSW,247,0.0,0.0,89,0.00,,---,0.00,VWS V13.00,2013-05-14 09:27:00,
2013-05-14 04:33:00,49.3,46.2,31.01,WSW,247,0.0,0.0,89,0.00,,---,0.00,VWS V13.00,2013-05-14 09:33:00,
2013-05-14 04:39:00,49.3,46.2,31.01,WSW,248,0.0,0.0,89,0.00,,---,0.00,VWS V13.00,2013-05-14 09:39:00,
2013-05-14 04:45:00,49.5,46.4,31.01,WSW,240,0.0,0.0,89,0.00,,---,0.00,VWS V13.00,2013-05-14 09:45:00,
2013-05-14 04:50:00,49.5,46.4,31.01,WSW,237,0.0,0.0,89,0.00,,---,0.00,VWS V13.00,2013-05-14 09:50:00,
2013-05-14 04:57:00,49.3,46.2,31.01,WSW,237,0.0,0.0,89,0.00,,---,0.00,VWS V13.00,2013-05-14 09:57:00,
2013-05-14 05:03:00,49.3,46.2,31.01,WSW,237,0.0,0.0,89,0.00,,---,0.00,VWS V13.00,2013-05-14 10:03:00,
2013-05-14 05:09:00,49.1,46.0,31.01,WSW,237,0.0,0.0,89,0.00,,---,0.00,VWS V13.00,2013-05-14 10:09:00,
2013-05-14 05:15:00,49.1,46.0,31.01,SSE,156,0.0,0.0,89,0.00,,---,0.00,VWS V13.00,2013-05-14 10:15:00,
2013-05-14 05:20:00,49.1,46.0,31.01,SSE,156,0.0,0.0,89,0.00,,---,0.00,VWS V13.00,2013-05-14 10:20:00,
2013-05-14 05:27:00,49.3,46.5,31.01,South,176,0.0,0.0,90,0.00,,---,0.00,VWS V13.00,2013-05-14 10:27:00,
2013-05-14 05:33:00,49.5,46.7,31.01,South,173,0.0,0.0,90,0.00,,---,0.00,VWS V13.00,2013-05-14 10:33:00,
2013-05-14 05:39:00,49.6,46.8,31.01,South,169,0.0,0.0,90,0.00,,---,0.00,VWS V13.00,2013-05-14 10:39:00,
2013-05-14 05:45:00,49.6,46.8,31.01,South,169,0.0,0.0,90,0.00,,---,0.00,VWS V13.00,2013-05-14 10:45:00,
2013-05-14 05:50:00,49.6,46.8,31.01,South,169,0.0,0.0,90,0.00,,---,0.00,VWS V13.00,2013-05-14 10:50:00,
2013-05-14 05:55:00,49.5,46.7,31.01,South,169,0.0,0.0,90,0.00,,---,0.00,VWS V13.00,2013-05-14 10:55:00,
2013-05-14 06:00:00,49.5,46.4,31.01,South,169,0.0,0.0,89,0.00,,---,0.00,VWS V13.00,2013-05-14 11:00:00,
2013-05-14 06:05:00,49.5,46.4,31.01,South,169,0.0,0.0,89,0.00,,---,0.00,VWS V13.00,2013-05-14 11:05:00,
2013-05-14 06:12:00,49.3,46.2,31.01,South,169,0.0,0.0,89,0.00,,---,0.00,VWS V13.00,2013-05-14 11:12:00,
2013-05-14 06:18:00,49.3,46.5,31.01,SSE,168,0.0,0.0,90,0.00,,---,0.00,VWS V13.00,2013-05-14 11:18:00,
2013-05-14 06:24:00,49.5,46.7,31.01,South,169,0.0,0.0,90,0.00,,---,0.00,VWS V13.00,2013-05-14 11:24:00,
2013-05-14 06:30:00,49.8,47.0,31.01,South,169,0.0,0.0,90,0.00,,---,0.00,VWS V13.00,2013-05-14 11:30:00,
2013-05-14 06:35:00,50.2,47.4,31.01,South,169,0.0,0.0,90,0.00,,---,0.00,VWS V13.00,2013-05-14 11:35:00,
2013-05-14 06:42:00,50.5,47.7,31.01,South,169,0.0,0.0,90,0.00,,---,0.00,VWS V13.00,2013-05-14 11:42:00,
2013-05-14 06:48:00,50.9,48.1,31.01,South,169,0.0,0.0,90,0.00,,---,0.00,VWS V13.00,2013-05-14 11:48:00,
2013-05-14 06:54:00,51.3,48.4,31.01,SW,233,0.0,0.0,90,0.00,,---,0.00,VWS V13.00,2013-05-14 11:54:00,
2013-05-14 07:00:00,51.8,49.0,31.01,SW,215,0.0,0.0,90,0.00,,---,0.00,VWS V13.00,2013-05-14 12:00:00,
2013-05-14 07:05:00,52.3,49.5,31.01,SSW,202,0.0,0.0,90,0.00,,---,0.00,VWS V13.00,2013-05-14 12:05:00,
2013-05-14 07:12:00,53.6,51.0,31.01,SSW,210,0.0,0.0,91,0.00,,---,0.00,VWS V13.00,2013-05-14 12:12:00,
2013-05-14 07:18:00,55.9,53.4,31.01,SSW,205,0.0,0.0,91,0.00,,---,0.00,VWS V13.00,2013-05-14 12:18:00,
2013-05-14 07:24:00,57.9,54.1,31.01,SSW,192,0.0,0.0,87,0.00,,---,0.00,VWS V13.00,2013-05-14 12:24:00,
2013-05-14 07:30:00,59.9,52.3,31.01,South,180,0.0,0.0,76,0.00,,---,0.00,VWS V13.00,2013-05-14 12:30:00,
2013-05-14 07:35:00,61.2,51.7,31.01,SSW,197,0.0,0.0,71,0.00,,---,0.00,VWS V13.00,2013-05-14 12:35:00,
2013-05-14 07:42:00,63.0,46.6,31.01,South,184,0.0,3.1,55,0.00,,---,0.00,VWS V13.00,2013-05-14 12:42:00,
2013-05-14 07:48:00,64.2,47.2,31.01,South,178,0.0,0.0,54,0.00,,---,0.00,VWS V13.00,2013-05-14 12:48:00,
2013-05-14 07:54:00,65.7,46.5,31.01,South,183,0.0,0.0,50,0.00,,---,0.00,VWS V13.00,2013-05-14 12:54:00,
2013-05-14 08:00:00,66.9,47.2,31.01,SSE,161,0.0,0.0,49,0.00,,---,0.00,VWS V13.00,2013-05-14 13:00:00,
2013-05-14 08:05:00,67.5,45.4,31.01,South,182,0.0,0.0,45,0.00,,---,0.00,VWS V13.00,2013-05-14 13:05:00,
2013-05-14 08:10:00,67.5,43.0,31.01,SW,230,4.0,4.0,41,0.00,,---,0.00,VWS V13.00,2013-05-14 13:10:00,
2013-05-14 08:15:00,67.1,43.9,31.01,SSE,156,0.0,0.0,43,0.00,,---,0.00,VWS V13.00,2013-05-14 13:15:00,
2013-05-14 08:21:00,68.0,44.1,31.01,SSW,212,0.0,4.0,42,0.00,,---,0.00,VWS V13.00,2013-05-14 13:21:00,
2013-05-14 08:27:00,68.7,44.1,31.01,SSW,204,2.7,3.6,41,0.00,,---,0.00,VWS V13.00,2013-05-14 13:27:00,
2013-05-14 08:33:00,68.5,42.6,31.01,SSW,201,0.0,4.0,39,0.00,,---,0.00,VWS V13.00,2013-05-14 13:33:00,
2013-05-14 08:39:00,68.2,43.0,31.01,South,180,3.6,4.9,40,0.00,,---,0.00,VWS V13.00,2013-05-14 13:39:00,
2013-05-14 08:45:00,68.4,43.8,31.01,SSE,162,0.0,4.0,41,0.00,,---,0.00,VWS V13.00,2013-05-14 13:45:00,
2013-05-14 08:50:00,69.1,43.8,31.01,SSE,167,3.1,3.6,40,0.00,,---,0.00,VWS V13.00,2013-05-14 13:50:00,
2013-05-14 08:58:00,69.4,43.4,31.01,WNW,286,0.0,0.0,39,0.00,,---,0.00,VWS V13.00,2013-05-14 13:58:00,
2013-05-14 09:04:00,69.8,43.8,31.01,SSW,213,0.0,4.9,39,0.00,,---,0.00,VWS V13.00,2013-05-14 14:04:00,
2013-05-14 09:10:00,70.3,44.2,31.01,SW,216,3.6,5.4,39,0.00,,---,0.00,VWS V13.00,2013-05-14 14:10:00,
2013-05-14 09:15:00,70.5,43.7,31.01,South,183,0.0,5.4,38,0.00,,---,0.00,VWS V13.00,2013-05-14 14:15:00,
2013-05-14 09:22:00,70.7,44.5,31.01,SSE,147,3.6,5.4,39,0.00,,---,0.00,VWS V13.00,2013-05-14 14:22:00,
2013-05-14 09:28:00,71.2,44.4,31.01,WSW,256,0.0,3.6,38,0.00,,---,0.00,VWS V13.00,2013-05-14 14:28:00,
2013-05-14 09:34:00,71.8,44.1,31.01,South,184,5.8,5.8,37,0.00,,---,0.00,VWS V13.00,2013-05-14 14:34:00,
2013-05-14 09:40:00,72.1,45.8,31.01,South,171,4.0,4.9,39,0.00,,---,0.00,VWS V13.00,2013-05-14 14:40:00,
2013-05-14 09:45:00,72.7,44.9,31.01,South,178,0.0,7.6,37,0.00,,---,0.00,VWS V13.00,2013-05-14 14:45:00,
2013-05-14 09:50:00,73.2,45.4,31.01,SSW,197,2.2,4.9,37,0.00,,---,0.00,VWS V13.00,2013-05-14 14:50:00,
2013-05-14 09:55:00,73.8,45.2,31.01,South,183,4.0,4.9,36,0.00,,---,0.00,VWS V13.00,2013-05-14 14:55:00,
2013-05-14 10:01:00,73.8,44.4,31.01,South,169,0.0,3.1,35,0.00,,---,0.00,VWS V13.00,2013-05-14 15:01:00,
2013-05-14 10:07:00,74.7,46.0,31.01,WSW,240,2.7,5.4,36,0.00,,---,0.00,VWS V13.00,2013-05-14 15:07:00,
2013-05-14 10:13:00,75.2,45.7,31.01,SW,231,6.3,6.3,35,0.00,,---,0.00,VWS V13.00,2013-05-14 15:13:00,
2013-05-14 10:19:00,75.6,45.2,31.01,SE,144,3.1,6.3,34,0.00,,---,0.00,VWS V13.00,2013-05-14 15:19:00,
2013-05-14 10:25:00,76.3,46.7,31.01,South,177,5.4,6.3,35,0.00,,---,0.00,VWS V13.00,2013-05-14 15:25:00,
2013-05-14 10:30:00,76.8,45.6,31.01,NNW,330,5.4,7.2,33,0.00,,---,0.00,VWS V13.00,2013-05-14 15:30:00,
2013-05-14 10:37:00,76.8,45.6,31.01,WNW,286,4.5,8.3,33,0.00,,---,0.00,VWS V13.00,2013-05-14 15:37:00,
2013-05-14 10:43:00,77.4,45.2,31.01,SW,235,2.7,8.1,32,0.00,,---,0.00,VWS V13.00,2013-05-14 15:43:00,
2013-05-14 10:49:00,77.5,45.4,31.01,WNW,292,3.1,5.8,32,0.00,,---,0.00,VWS V13.00,2013-05-14 15:49:00,
2013-05-14 10:55:00,77.9,45.7,31.01,SSE,162,3.1,5.8,32,0.00,,---,0.00,VWS V13.00,2013-05-14 15:55:00,
2013-05-14 11:00:00,77.7,45.5,31.01,West,275,7.2,7.2,32,0.00,,---,0.00,VWS V13.00,2013-05-14 16:00:00,
2013-05-14 11:05:00,78.3,46.0,31.01,WSW,251,4.0,7.2,32,0.00,,---,0.00,VWS V13.00,2013-05-14 16:05:00,
2013-05-14 11:10:00,78.8,46.5,31.01,WSW,250,3.6,3.6,32,0.00,,---,0.00,VWS V13.00,2013-05-14 16:10:00,
2013-05-14 11:16:00,79.0,45.8,31.01,SSW,206,0.0,3.1,31,0.00,,---,0.00,VWS V13.00,2013-05-14 16:16:00,
2013-05-14 11:22:00,79.5,46.3,31.01,South,180,3.1,8.1,31,0.00,,---,0.00,VWS V13.00,2013-05-14 16:22:00,
2013-05-14 11:28:00,79.2,46.0,31.01,SSW,211,3.6,8.7,31,0.00,,---,0.00,VWS V13.00,2013-05-14 16:28:00,
2013-05-14 11:34:00,79.3,46.1,31.01,SSW,193,4.9,8.7,31,0.00,,---,0.00,VWS V13.00,2013-05-14 16:34:00,
2013-05-14 11:40:00,79.7,46.4,31.01,WNW,282,3.1,6.3,31,0.00,,---,0.00,VWS V13.00,2013-05-14 16:40:00,
2013-05-14 11:45:00,80.2,46.9,31.01,WNW,286,4.9,9.2,31,0.00,,---,0.00,VWS V13.00,2013-05-14 16:45:00,
2013-05-14 11:52:00,80.6,46.3,31.01,SSE,151,3.6,8.3,30,0.00,,---,0.00,VWS V13.00,2013-05-14 16:52:00,
2013-05-14 11:58:00,80.6,47.2,31.01,WSW,253,2.2,8.1,31,0.00,,---,0.00,VWS V13.00,2013-05-14 16:58:00,
2013-05-14 12:04:00,81.3,47.0,31.01,WSW,250,5.4,6.3,30,0.00,,---,0.00,VWS V13.00,2013-05-14 17:04:00,
2013-05-14 12:10:00,81.5,47.1,31.01,SSE,150,2.7,7.6,30,0.00,,---,0.00,VWS V13.00,2013-05-14 17:10:00,
2013-05-14 12:15:00,81.7,47.3,31.01,West,270,5.8,5.8,30,0.00,,---,0.00,VWS V13.00,2013-05-14 17:15:00,
2013-05-14 12:22:00,81.7,47.3,31.01,WNW,288,5.4,8.7,30,0.00,,---,0.00,VWS V13.00,2013-05-14 17:22:00,
2013-05-14 12:28:00,82.2,47.7,31.01,South,173,2.7,5.4,30,0.00,,---,0.00,VWS V13.00,2013-05-14 17:28:00,
2013-05-14 12:34:00,82.8,47.3,31.01,SSE,161,5.4,8.1,29,0.00,,---,0.00,VWS V13.00,2013-05-14 17:34:00,
2013-05-14 12:40:00,82.9,47.5,31.01,SSE,158,5.4,8.1,29,0.00,,---,0.00,VWS V13.00,2013-05-14 17:40:00,
2013-05-14 12:46:00,82.8,47.3,31.01,WSW,243,4.0,6.3,29,0.00,,---,0.00,VWS V13.00,2013-05-14 17:46:00,
2013-05-14 12:52:00,83.3,47.8,31.01,WSW,254,4.0,4.0,29,0.00,,---,0.00,VWS V13.00,2013-05-14 17:52:00,
2013-05-14 12:59:00,83.7,48.1,31.01,West,278,6.3,6.7,29,0.00,,---,0.00,VWS V13.00,2013-05-14 17:59:00,
2013-05-14 13:05:00,83.8,48.2,31.01,SW,230,3.6,7.2,29,0.00,,---,0.00,VWS V13.00,2013-05-14 18:05:00,
2013-05-14 13:10:00,84.2,48.5,31.01,West,264,6.3,10.1,29,0.00,,---,0.00,VWS V13.00,2013-05-14 18:10:00,
2013-05-14 13:17:00,84.2,48.5,31.01,NW,309,3.6,4.0,29,0.00,,---,0.00,VWS V13.00,2013-05-14 18:17:00,
2013-05-14 13:23:00,84.4,48.7,31.01,NW,305,0.0,7.6,29,0.00,,---,0.00,VWS V13.00,2013-05-14 18:23:00,
2013-05-14 13:29:00,84.9,49.2,31.01,SSW,199,2.7,7.2,29,0.00,,---,0.00,VWS V13.00,2013-05-14 18:29:00,
2013-05-14 13:35:00,84.7,48.1,31.01,ESE,122,5.4,8.7,28,0.00,,---,0.00,VWS V13.00,2013-05-14 18:35:00,
2013-05-14 13:40:00,84.2,47.6,31.01,South,169,4.0,8.7,28,0.00,,---,0.00,VWS V13.00,2013-05-14 18:40:00,
2013-05-14 13:47:00,84.6,48.8,31.01,WNW,296,4.0,8.1,29,0.00,,---,0.00,VWS V13.00,2013-05-14 18:47:00,
2013-05-14 13:53:00,85.3,49.5,31.01,SSE,152,2.7,6.3,29,0.00,,---,0.00,VWS V13.00,2013-05-14 18:53:00,
2013-05-14 13:59:00,85.6,48.8,31.01,South,181,6.7,11.0,28,0.00,,---,0.00,VWS V13.00,2013-05-14 18:59:00,
2013-05-14 14:05:00,86.0,49.1,31.01,NE,47,3.6,5.8,28,0.00,,---,0.00,VWS V13.00,2013-05-14 19:05:00,
2013-05-14 14:10:00,85.5,48.7,31.01,SSW,193,3.1,8.1,28,0.00,,---,0.00,VWS V13.00,2013-05-14 19:10:00,
2013-05-14 14:15:00,85.6,48.8,31.01,South,174,4.0,10.5,28,0.00,,---,0.00,VWS V13.00,2013-05-14 19:15:00,
2013-05-14 14:23:00,85.8,49.0,31.01,West,273,0.0,10.5,28,0.00,,---,0.00,VWS V13.00,2013-05-14 19:23:00,
2013-05-14 14:29:00,86.2,48.3,31.01,West,280,3.1,8.1,27,0.00,,---,0.00,VWS V13.00,2013-05-14 19:29:00,
2013-05-14 14:35:00,86.4,47.5,31.01,SSE,167,4.0,10.5,26,0.00,,---,0.00,VWS V13.00,2013-05-14 19:35:00,
2013-05-14 14:40:00,86.2,47.3,31.01,West,259,2.7,6.3,26,0.00,,---,0.00,VWS V13.00,2013-05-14 19:40:00,
2013-05-14 14:46:00,86.2,47.3,31.01,South,170,7.6,8.7,26,0.00,,---,0.00,VWS V13.00,2013-05-14 19:46:00,
2013-05-14 14:53:00,86.2,48.3,31.01,SSE,162,2.7,10.5,27,0.00,,---,0.00,VWS V13.00,2013-05-14 19:53:00,
2013-05-14 14:59:00,86.7,48.8,31.01,WSW,258,2.2,8.1,27,0.00,,---,0.00,VWS V13.00,2013-05-14 19:59:00,
2013-05-14 15:05:00,86.7,48.8,31.01,SSW,211,3.1,10.1,27,0.00,,---,0.00,VWS V13.00,2013-05-14 20:05:00,
2013-05-14 15:11:00,86.4,47.5,31.01,West,268,2.7,8.1,26,0.00,,---,0.00,VWS V13.00,2013-05-14 20:11:00,
2013-05-14 15:17:00,86.2,48.3,31.01,West,280,5.4,6.3,27,0.00,,---,0.00,VWS V13.00,2013-05-14 20:17:00,
2013-05-14 15:23:00,86.7,47.8,31.01,SSE,154,10.5,10.5,26,0.00,,---,0.00,VWS V13.00,2013-05-14 20:23:00,
2013-05-14 15:29:00,86.5,48.6,31.01,WNW,282,2.7,8.3,27,0.00,,---,0.00,VWS V13.00,2013-05-14 20:29:00,
2013-05-14 15:35:00,86.7,48.8,31.01,West,278,5.4,6.7,27,0.00,,---,0.00,VWS V13.00,2013-05-14 20:35:00,
2013-05-14 15:41:00,86.7,47.8,31.01,NW,316,6.3,7.2,26,0.00,,---,0.00,VWS V13.00,2013-05-14 20:41:00,
2013-05-14 15:47:00,86.7,48.8,31.01,WSW,248,4.0,8.3,27,0.00,,---,0.00,VWS V13.00,2013-05-14 20:47:00,
2013-05-14 15:53:00,86.5,47.6,31.01,WSW,248,3.1,8.7,26,0.00,,---,0.00,VWS V13.00,2013-05-14 20:53:00,
2013-05-14 15:59:00,86.7,47.8,31.01,West,267,0.0,10.5,26,0.00,,---,0.00,VWS V13.00,2013-05-14 20:59:00,
2013-05-14 16:05:00,87.1,50.1,31.01,WSW,239,0.0,8.7,28,0.00,,---,0.00,VWS V13.00,2013-05-14 21:05:00,
2013-05-14 16:10:00,87.6,47.5,31.01,SW,232,8.1,8.1,25,0.00,,---,0.00,VWS V13.00,2013-05-14 21:10:00,
2013-05-14 16:17:00,87.1,48.1,31.01,WNW,295,3.6,8.1,26,0.00,,---,0.00,VWS V13.00,2013-05-14 21:17:00,
2013-05-14 16:23:00,86.9,46.9,31.01,WNW,303,4.0,8.1,25,0.00,,---,0.00,VWS V13.00,2013-05-14 21:23:00,
2013-05-14 16:29:00,86.5,47.6,31.01,WSW,255,3.1,8.7,26,0.00,,---,0.00,VWS V13.00,2013-05-14 21:29:00,
2013-05-14 16:35:00,86.5,47.6,31.01,WSW,256,3.6,11.0,26,0.00,,---,0.00,VWS V13.00,2013-05-14 21:35:00,
2013-05-14 16:41:00,86.2,48.3,31.01,WSW,237,4.0,8.3,27,0.00,,---,0.00,VWS V13.00,2013-05-14 21:41:00,
2013-05-14 16:47:00,86.2,48.3,31.01,South,185,5.4,8.7,27,0.00,,---,0.00,VWS V13.00,2013-05-14 21:47:00,
2013-05-14 16:53:00,85.6,47.9,31.01,WNW,287,5.8,8.7,27,0.00,,---,0.00,VWS V13.00,2013-05-14 21:53:00,
2013-05-14 16:59:00,85.5,48.7,31.01,SSW,196,4.9,6.3,28,0.00,,---,0.00,VWS V13.00,2013-05-14 21:59:00,
2013-05-14 17:05:00,85.6,48.8,31.01,WNW,288,7.2,7.2,28,0.00,,---,0.00,VWS V13.00,2013-05-14 22:05:00,
2013-05-14 17:11:00,85.6,48.8,31.01,WNW,294,3.6,6.3,28,0.00,,---,0.00,VWS V13.00,2013-05-14 22:11:00,
2013-05-14 17:17:00,85.5,47.7,31.01,SSW,204,6.3,6.3,27,0.00,,---,0.00,VWS V13.00,2013-05-14 22:17:00,
2013-05-14 17:23:00,85.1,48.4,31.01,West,268,5.4,6.3,28,0.00,,---,0.00,VWS V13.00,2013-05-14 22:23:00,
2013-05-14 17:29:00,84.9,48.2,31.01,West,268,4.0,8.7,28,0.00,,---,0.00,VWS V13.00,2013-05-14 22:29:00,
2013-05-14 17:35:00,84.4,47.8,31.01,SSW,206,3.1,10.5,28,0.00,,---,0.00,VWS V13.00,2013-05-14 22:35:00,
2013-05-14 17:40:00,84.2,47.6,31.01,West,279,7.6,8.7,28,0.00,,---,0.00,VWS V13.00,2013-05-14 22:40:00,
2013-05-14 17:45:00,84.2,47.6,31.01,SSE,153,3.6,9.6,28,0.00,,---,0.00,VWS V13.00,2013-05-14 22:45:00,
2013-05-14 17:50:00,84.0,48.4,31.01,SW,216,3.1,3.6,29,0.00,,---,0.00,VWS V13.00,2013-05-14 22:50:00,
2013-05-14 17:56:00,83.8,48.2,31.01,West,276,4.9,9.6,29,0.00,,---,0.00,VWS V13.00,2013-05-14 22:56:00,
2013-05-14 18:03:00,83.7,48.1,31.01,West,263,4.0,5.8,29,0.00,,---,0.00,VWS V13.00,2013-05-14 23:03:00,
2013-05-14 18:09:00,83.7,48.1,31.01,WNW,288,5.4,5.4,29,0.00,,---,0.00,VWS V13.00,2013-05-14 23:09:00,
2013-05-14 18:15:00,83.3,47.8,31.01,WSW,244,5.4,10.1,29,0.00,,---,0.00,VWS V13.00,2013-05-14 23:15:00,
2013-05-14 18:20:00,82.9,47.5,31.01,WSW,256,0.0,6.3,29,0.00,,---,0.00,VWS V13.00,2013-05-14 23:20:00,
2013-05-14 18:27:00,82.6,47.1,31.01,SW,226,0.0,5.4,29,0.00,,---,0.00,VWS V13.00,2013-05-14 23:27:00,
2013-05-14 18:33:00,82.2,47.7,31.01,West,279,2.2,5.4,30,0.00,,---,0.00,VWS V13.00,2013-05-14 23:33:00,
2013-05-14 18:39:00,81.9,47.4,31.01,WSW,248,0.0,5.4,30,0.00,,---,0.00,VWS V13.00,2013-05-14 23:39:00,
2013-05-14 18:45:00,81.5,47.1,31.01,SE,135,2.7,5.8,30,0.00,,---,0.00,VWS V13.00,2013-05-14 23:45:00,
2013-05-14 18:50:00,81.1,46.8,31.01,WSW,253,0.0,6.3,30,0.00,,---,0.00,VWS V13.00,2013-05-14 23:50:00,
2013-05-14 18:57:00,80.6,46.3,31.01,West,259,0.0,3.1,30,0.00,,---,0.00,VWS V13.00,2013-05-14 23:57:00,
2013-05-14 19:03:00,79.7,46.4,31.01,South,182,2.2,2.7,31,0.00,,---,0.00,VWS V13.00,2013-05-15 00:03:00,
2013-05-14 19:09:00,79.2,46.8,31.01,SSW,206,0.0,3.6,32,0.00,,---,0.00,VWS V13.00,2013-05-15 00:09:00,
2013-05-14 19:15:00,78.4,47.0,31.01,South,173,3.6,4.9,33,0.00,,---,0.00,VWS V13.00,2013-05-15 00:15:00,
2013-05-14 19:20:00,78.1,46.7,31.01,South,172,0.0,3.6,33,0.00,,---,0.00,VWS V13.00,2013-05-15 00:20:00,
2013-05-14 19:25:00,77.5,47.0,31.01,South,183,0.0,3.1,34,0.00,,---,0.00,VWS V13.00,2013-05-15 00:25:00,
2013-05-14 19:30:00,77.4,46.8,31.01,WSW,246,0.0,3.6,34,0.00,,---,0.00,VWS V13.00,2013-05-15 00:30:00,
2013-05-14 19:35:00,77.0,47.3,31.01,SSW,198,2.2,4.0,35,0.00,,---,0.00,VWS V13.00,2013-05-15 00:35:00,
2013-05-14 19:40:00,76.6,47.7,31.01,West,266,2.7,4.0,36,0.00,,---,0.00,VWS V13.00,2013-05-15 00:40:00,
2013-05-14 19:45:00,76.5,47.5,31.01,WSW,252,0.0,4.0,36,0.00,,---,0.00,VWS V13.00,2013-05-15 00:45:00,
2013-05-14 19:51:00,76.1,48.0,31.01,WSW,246,0.0,0.0,37,0.00,,---,0.00,VWS V13.00,2013-05-15 00:51:00,
2013-05-14 19:57:00,75.6,47.5,31.01,South,172,0.0,3.1,37,0.00,,---,0.00,VWS V13.00,2013-05-15 00:57:00,
2013-05-14 20:03:00,75.0,48.4,31.01,SW,222,0.0,0.0,39,0.00,,---,0.00,VWS V13.00,2013-05-15 01:03:00,
2013-05-14 20:09:00,74.7,48.8,31.01,SW,219,0.0,0.0,40,0.00,,---,0.00,VWS V13.00,2013-05-15 01:09:00,
2013-05-14 20:15:00,74.1,48.9,31.01,SSW,210,0.0,0.0,41,0.00,,---,0.00,VWS V13.00,2013-05-15 01:15:00,
2013-05-14 20:20:00,73.8,49.3,31.01,SSE,156,0.0,0.0,42,0.00,,---,0.00,VWS V13.00,2013-05-15 01:20:00,
2013-05-14 20:25:00,73.4,48.9,31.01,SSW,209,0.0,0.0,42,0.00,,---,0.00,VWS V13.00,2013-05-15 01:25:00,
2013-05-14 20:30:00,73.2,49.4,31.01,WSW,243,0.0,3.6,43,0.00,,---,0.00,VWS V13.00,2013-05-15 01:30:00,
2013-05-14 20:36:00,73.0,49.2,31.01,WSW,240,0.0,0.0,43,0.00,,---,0.00,VWS V13.00,2013-05-15 01:36:00,
2013-05-14 20:42:00,72.9,49.1,31.01,South,191,0.0,0.0,43,0.00,,---,0.00,VWS V13.00,2013-05-15 01:42:00,
2013-05-14 20:48:00,72.9,49.7,31.01,SSW,201,0.0,0.0,44,0.00,,---,0.00,VWS V13.00,2013-05-15 01:48:00,
2013-05-14 20:54:00,72.7,49.5,31.01,South,183,0.0,0.0,44,0.00,,---,0.00,VWS V13.00,2013-05-15 01:54:00,
2013-05-14 21:00:00,72.3,49.2,31.01,SE,146,0.0,0.0,44,0.00,,---,0.00,VWS V13.00,2013-05-15 02:00:00,
2013-05-14 21:05:00,72.1,49.7,31.01,SSE,158,0.0,0.0,45,0.00,,---,0.00,VWS V13.00,2013-05-15 02:05:00,
2013-05-14 21:10:00,71.8,49.3,31.01,SSE,155,0.0,0.0,45,0.00,,---,0.00,VWS V13.00,2013-05-15 02:10:00,
2013-05-14 21:15:00,71.4,49.6,31.01,SSE,150,0.0,0.0,46,0.00,,---,0.00,VWS V13.00,2013-05-15 02:15:00,
2013-05-14 21:21:00,70.9,49.7,31.01,SSE,150,0.0,0.0,47,0.00,,---,0.00,VWS V13.00,2013-05-15 02:21:00,
2013-05-14 21:27:00,70.2,49.6,31.01,SSE,150,0.0,0.0,48,0.00,,---,0.00,VWS V13.00,2013-05-15 02:27:00,
2013-05-14 21:33:00,69.8,49.8,31.01,SSW,193,0.0,0.0,49,0.00,,---,0.00,VWS V13.00,2013-05-15 02:33:00,
2013-05-14 21:39:00,69.4,50.0,31.01,SSW,204,0.0,0.0,50,0.00,,---,0.00,VWS V13.00,2013-05-15 02:39:00,
2013-05-14 21:45:00,69.1,50.2,31.01,SSE,164,0.0,0.0,51,0.00,,---,0.00,VWS V13.00,2013-05-15 02:45:00,
2013-05-14 21:50:00,68.9,50.0,31.01,South,186,0.0,0.0,51,0.00,,---,0.00,VWS V13.00,2013-05-15 02:50:00,
2013-05-14 21:57:00,68.7,50.4,31.01,SSW,193,0.0,0.0,52,0.00,,---,0.00,VWS V13.00,2013-05-15 02:57:00,
2013-05-14 22:03:00,68.5,50.2,31.01,SSW,193,0.0,0.0,52,0.00,,---,0.00,VWS V13.00,2013-05-15 03:03:00,
2013-05-14 22:09:00,68.4,50.6,31.01,SSE,159,0.0,0.0,53,0.00,,---,0.00,VWS V13.00,2013-05-15 03:09:00,
2013-05-14 22:15:00,68.2,50.4,31.01,South,175,0.0,0.0,53,0.00,,---,0.00,VWS V13.00,2013-05-15 03:15:00,
2013-05-14 22:21:00,68.2,50.9,31.01,SSW,203,0.0,0.0,54,0.00,,---,0.00,VWS V13.00,2013-05-15 03:21:00,
2013-05-14 22:28:00,68.0,50.8,31.01,NE,53,0.0,0.0,54,0.00,,---,0.00,VWS V13.00,2013-05-15 03:28:00,
2013-05-14 22:34:00,67.8,51.1,31.01,South,191,0.0,0.0,55,0.00,,---,0.00,VWS V13.00,2013-05-15 03:34:00,
2013-05-14 22:40:00,67.8,51.1,31.01,West,265,0.0,0.0,55,0.00,,---,0.00,VWS V13.00,2013-05-15 03:40:00,
2013-05-14 22:45:00,67.6,50.9,31.01,South,185,0.0,0.0,55,0.00,,---,0.00,VWS V13.00,2013-05-15 03:45:00,
2013-05-14 22:50:00,67.5,51.2,31.01,South,185,0.0,0.0,56,0.00,,---,0.00,VWS V13.00,2013-05-15 03:50:00,
2013-05-14 22:55:00,67.1,50.9,31.01,South,185,0.0,0.0,56,0.00,,---,0.00,VWS V13.00,2013-05-15 03:55:00,
2013-05-14 23:00:00,66.9,51.2,31.01,SW,224,0.0,0.0,57,0.00,,---,0.00,VWS V13.00,2013-05-15 04:00:00,
2013-05-14 23:01:00,66.7,51.0,31.01,SW,224,0.0,0.0,57,0.00,,---,0.00,VWS V13.00,2013-05-15 04:01:00,
2013-05-14 23:05:00,66.6,50.9,31.01,SW,224,0.0,0.0,57,0.00,,---,0.00,VWS V13.00,2013-05-15 04:05:00,
2013-05-14 23:07:00,66.6,50.9,31.01,SW,224,0.0,0.0,57,0.00,,---,0.00,VWS V13.00,2013-05-15 04:07:00,
2013-05-14 23:10:00,66.4,51.2,31.01,SW,224,0.0,0.0,58,0.00,,---,0.00,VWS V13.00,2013-05-15 04:10:00,
2013-05-14 23:15:00,66.0,51.3,31.01,SW,224,0.0,0.0,59,0.00,,---,0.00,VWS V13.00,2013-05-15 04:15:00,
2013-05-14 23:20:00,65.7,51.0,31.01,SW,231,0.0,0.0,59,0.00,,---,0.00,VWS V13.00,2013-05-15 04:20:00,
2013-05-14 23:25:00,65.5,51.2,31.01,SW,231,0.0,0.0,60,0.00,,---,0.00,VWS V13.00,2013-05-15 04:25:00,
2013-05-14 23:30:00,65.1,51.8,31.01,SW,231,0.0,0.0,62,0.00,,---,0.00,VWS V13.00,2013-05-15 04:30:00,
2013-05-14 23:35:00,64.9,52.1,31.01,SSW,200,0.0,0.0,63,0.00,,---,0.00,VWS V13.00,2013-05-15 04:35:00,
2013-05-14 23:40:00,64.8,51.9,31.01,SSW,194,0.0,0.0,63,0.00,,---,0.00,VWS V13.00,2013-05-15 04:40:00,
2013-05-14 23:46:00,64.6,52.1,31.01,SSW,194,0.0,0.0,64,0.00,,---,0.00,VWS V13.00,2013-05-15 04:46:00,
2013-05-14 23:52:00,64.4,52.0,31.01,SSW,194,0.0,0.0,64,0.00,,---,0.00,VWS V13.00,2013-05-15 04:52:00,
2013-05-14 23:58:00,64.0,52.0,31.01,SSW,194,0.0,0.0,65,0.00,,---,0.00,VWS V13.00,2013-05-15 04:58:00,